Share

Abbott, MS

9:13 AM CDT on April 23, 2014 (GMT -0500)
Tibbee Bluff (KMSCOLUM8) Elev 197 ft | 33.52 °N, 88.55 °W | Change Station

Current weather conditions updated 13 minutes ago

Clear
Clear
63.5 °F
Feels Like 63.5 °F
N
0.0
Wind Variable Wind from ESE
Gusts 5.0 mph
Sunrise 6:14 AM
Sunset 7:31 PM
Moon Waning Crescent

Today is forecast to be nearly the same temperature as yesterday.

Pressure 30.04 in
Visibility 10.0 miles
Clouds Clear
Dew Point 58 °F
Humidity 83%
Rainfall 0.00 in
Snow Depth Not available.
UV 4 out of 16
Pollen 8.00 out of 12
Air Quality Not available.
Flu Activity No Activity
METAR KCBM 231358Z AUTO 04010KT 10SM CLR 17/09 A3003 RMK AO2 SLP171 T01700089

More Conditions Fewer Conditions

Pressure 30.04 in
Visibility 10.0 miles
Clouds Clear
Dew Point 58 °F
Humidity 83%
Rainfall 0.00 in
Snow Depth Not available.
UV 4 out of 16
Pollen 8.00 out of 12
Air Quality Not available.
Flu Activity No Activity
METAR KCBM 231358Z AUTO 04010KT 10SM CLR 17/09 A3003 RMK AO2 SLP171 T01700089

More Conditions Fewer Conditions

10-Day Weather Forecast

Almanac

Astronomy

Apr. 23, 2014 Rise Set
Actual Time 6:14 AM CDT 7:31 PM CDT
Civil Twilight 5:48 AM CDT 7:57 PM CDT
Nautical Twilight 5:17 AM CDT 8:28 PM CDT
Astronomical Twilight 4:45 AM CDT 9:01 PM CDT
Moon 2:28 AM CDT 1:56 PM CDT
Length of Visible Light 14h 09m
Length of Day
13h 17m
Tomorrow will be 1m 53s longer.
Waning Crescent, 36% of the Moon is Illuminated
Today
Waning Crescent
Apr 29
New
May 6
First Quarter
May 14
Full
May 21
Last Quarter

Today's Extremes

State Highs State Lows

Community

  • spring flowers
    spring flowers
  • Earth Day Spectrum Ove' Blue
    Earth Day Spectrum Ove' Blue
  • BARN B&W
    BARN B&W
  • April Sunset
    April Sunset
  • Waiting..
    Waiting..

WunderPhotos

Upload Photos

1,704,294 photos uploaded!

Nearby

Snow Depth

Station Depth Elevation
No new snow has been reported.

Coastal Water Temperatures

Place Temperature
No Stations Reporting

Earthquake Activity

City Distance Mag. Time & Date
No recent earthquake activity has been reported nearby.
Minimum magnitude displayed is 2.5.

Nearby Weather Stations

Station Location Temp. Dew Point Humidity Wind Precip. Elev Updated Type
Tibbee Bluff, Columbus, MS 63.5 °F 58 °F 83% ESE  at  0.0 mph 0.00 in / hr 197 ft 9:00 AM CDT Normal
Near Intersection of Hwys 82, Columbus, MS 64.4 °F 48 °F 55% NNE  at  8.0 mph 0.00 in / hr 154 ft 9:13 AM CDT Rapid Fire
RAWS MONROE MS, Greenwood Springs, MS 58 °F 49 °F 73% North  at  6 mph 0.00 in / hr 354 ft 8:14 AM CDT MADIS

Show More Stations Show Fewer Stations

What do you think?

We're not finished. Please let us know what you like, what you don't like, and what you are still missing.